createdAt,value
2019-02-15T00:00:39.092Z,12.10
2019-02-15T00:03:08.142Z,12.00
2019-02-15T00:05:36.030Z,12.00
2019-02-15T00:08:04.106Z,12.00
2019-02-15T00:10:32.118Z,11.90
2019-02-15T00:13:00.233Z,11.90
2019-02-15T00:15:28.678Z,11.80
2019-02-15T00:18:13.919Z,11.70
2019-02-15T00:20:51.163Z,11.60
2019-02-15T00:23:19.097Z,11.60
2019-02-15T00:25:47.326Z,11.60
2019-02-15T00:28:15.313Z,11.60
2019-02-15T00:30:43.349Z,11.60
2019-02-15T00:33:11.571Z,11.60
2019-02-15T00:35:39.933Z,11.50
2019-02-15T00:38:08.170Z,11.50
2019-02-15T00:40:36.202Z,11.60
2019-02-15T00:43:04.194Z,11.60
2019-02-15T00:45:35.996Z,11.50
2019-02-15T00:48:07.695Z,11.40
2019-02-15T00:50:48.067Z,11.40
2019-02-15T00:53:25.699Z,11.40
2019-02-15T00:56:15.763Z,11.30
2019-02-15T00:58:54.445Z,11.20
2019-02-15T01:01:38.559Z,11.10
2019-02-15T01:04:29.283Z,11.10
2019-02-15T01:07:18.794Z,11.10
2019-02-15T01:09:56.576Z,11.00
2019-02-15T01:12:43.939Z,10.90
2019-02-15T01:15:12.390Z,10.90
2019-02-15T01:17:40.800Z,10.80
2019-02-15T01:20:08.650Z,10.80
2019-02-15T01:22:36.626Z,10.80
2019-02-15T01:25:04.963Z,10.90
2019-02-15T01:27:52.247Z,10.80
2019-02-15T01:30:42.582Z,10.80
2019-02-15T01:33:21.472Z,10.70
2019-02-15T01:36:11.562Z,10.70
2019-02-15T01:39:13.922Z,10.70
2019-02-15T01:42:02.156Z,10.60
2019-02-15T01:44:37.909Z,10.60
2019-02-15T01:47:15.855Z,10.50
2019-02-15T01:49:43.790Z,10.50
2019-02-15T01:52:11.738Z,10.50
2019-02-15T01:54:40.102Z,10.50
2019-02-15T01:57:08.227Z,10.50
2019-02-15T01:59:36.180Z,10.60
2019-02-15T02:02:05.030Z,10.50
2019-02-15T02:04:33.271Z,10.50
2019-02-15T02:07:01.340Z,10.50
2019-02-15T02:09:29.222Z,10.40
2019-02-15T02:11:57.210Z,10.40
2019-02-15T02:14:25.094Z,10.40
2019-02-15T02:16:53.195Z,10.30
2019-02-15T02:19:21.169Z,10.30
2019-02-15T02:21:49.488Z,10.30
2019-02-15T02:24:17.774Z,10.30
2019-02-15T02:26:45.729Z,10.30
2019-02-15T02:29:13.670Z,10.20
2019-02-15T02:31:41.687Z,10.20
2019-02-15T02:34:09.620Z,10.20
2019-02-15T02:36:56.315Z,10.20
2019-02-15T02:39:24.845Z,10.20
2019-02-15T02:41:52.750Z,10.10
2019-02-15T02:44:20.688Z,10.10
2019-02-15T02:46:48.720Z,10.00
2019-02-15T02:49:16.761Z,10.00
2019-02-15T02:51:44.694Z,9.90
2019-02-15T02:54:12.662Z,9.90
2019-02-15T02:56:40.937Z,9.80
2019-02-15T02:59:09.034Z,9.80
2019-02-15T03:01:37.615Z,9.80
2019-02-15T03:04:05.576Z,9.80
2019-02-15T03:06:33.564Z,9.80
2019-02-15T03:09:01.739Z,9.80
2019-02-15T03:11:29.689Z,9.80
2019-02-15T03:13:58.026Z,9.70
2019-02-15T03:16:26.053Z,9.70
2019-02-15T03:18:54.035Z,9.70
2019-02-15T03:21:22.316Z,9.70
2019-02-15T03:23:50.338Z,9.60
2019-02-15T03:26:18.559Z,9.60
2019-02-15T03:28:46.500Z,9.50
2019-02-15T03:31:14.712Z,9.50
2019-02-15T03:33:42.920Z,9.50
2019-02-15T03:36:16.330Z,9.30
2019-02-15T03:38:58.671Z,9.30
2019-02-15T03:41:33.805Z,9.30
2019-02-15T03:44:01.790Z,9.30
2019-02-15T03:46:29.777Z,9.30
2019-02-15T03:48:57.704Z,9.30
2019-02-15T03:51:25.620Z,9.30
2019-02-15T03:53:53.862Z,9.30
2019-02-15T03:56:21.798Z,9.20
2019-02-15T03:58:49.799Z,9.20
2019-02-15T04:01:17.895Z,9.20
2019-02-15T04:03:45.960Z,9.20
2019-02-15T04:06:14.277Z,9.20
2019-02-15T04:08:42.272Z,9.10
2019-02-15T04:11:10.167Z,9.10
2019-02-15T04:13:38.291Z,9.00
2019-02-15T04:16:06.239Z,9.00
2019-02-15T04:18:34.220Z,9.00
2019-02-15T04:21:02.095Z,8.90
2019-02-15T04:23:30.044Z,8.90
2019-02-15T04:25:58.057Z,8.90
2019-02-15T04:28:26.520Z,8.90
2019-02-15T04:30:54.989Z,8.90
2019-02-15T04:33:22.978Z,8.80
2019-02-15T04:35:50.937Z,8.80
2019-02-15T04:38:18.970Z,8.90
2019-02-15T04:40:46.864Z,8.80
2019-02-15T04:43:14.865Z,8.80
2019-02-15T04:45:42.856Z,8.80
2019-02-15T04:48:10.798Z,8.80
2019-02-15T04:50:38.712Z,8.70
2019-02-15T04:53:06.770Z,8.70
2019-02-15T04:55:34.727Z,8.70
2019-02-15T04:58:02.686Z,8.70
2019-02-15T05:00:30.658Z,8.70
2019-02-15T05:02:58.646Z,8.70
2019-02-15T05:05:26.625Z,8.70
2019-02-15T05:07:54.627Z,8.60
2019-02-15T05:10:22.734Z,8.60
2019-02-15T05:12:50.775Z,8.60
2019-02-15T05:15:18.803Z,8.60
2019-02-15T05:17:46.796Z,8.60
2019-02-15T05:20:14.794Z,8.60
2019-02-15T05:22:42.638Z,8.60
2019-02-15T05:25:10.795Z,8.60
2019-02-15T05:27:38.966Z,8.60
2019-02-15T05:30:07.148Z,8.50
2019-02-15T05:32:35.135Z,8.50
2019-02-15T05:35:03.055Z,8.50
2019-02-15T05:37:31.047Z,8.50
2019-02-15T05:39:59.043Z,8.40
2019-02-15T05:42:27.008Z,8.40
2019-02-15T05:45:03.236Z,8.40
2019-02-15T05:47:24.765Z,8.30
2019-02-15T05:49:52.701Z,8.30
2019-02-15T05:52:20.599Z,8.40
2019-02-15T05:54:48.518Z,8.30
2019-02-15T05:57:16.481Z,8.30
2019-02-15T05:59:44.464Z,8.30
2019-02-15T06:02:12.511Z,8.30
2019-02-15T06:04:40.519Z,8.30
2019-02-15T06:07:08.477Z,8.20
2019-02-15T06:09:36.468Z,8.10
2019-02-15T06:12:04.775Z,8.00
2019-02-15T06:14:32.646Z,8.10
2019-02-15T06:17:01.812Z,8.10
2019-02-15T06:19:29.855Z,8.00
2019-02-15T06:21:57.846Z,8.10
2019-02-15T06:24:25.833Z,8.10
2019-02-15T06:26:53.691Z,8.00
2019-02-15T06:29:21.607Z,8.00
2019-02-15T06:31:49.521Z,8.00
2019-02-15T06:34:17.429Z,8.00
2019-02-15T06:36:45.617Z,8.00
2019-02-15T06:39:13.603Z,8.00
2019-02-15T06:41:41.609Z,8.00
2019-02-15T06:44:09.531Z,8.00
2019-02-15T06:46:37.554Z,8.00
2019-02-15T06:49:05.555Z,8.10
2019-02-15T06:51:33.509Z,8.10
2019-02-15T06:54:01.443Z,8.10
2019-02-15T06:56:29.382Z,8.10
2019-02-15T06:59:34.615Z,8.10
2019-02-15T07:02:24.621Z,8.00
2019-02-15T07:05:04.481Z,8.00
2019-02-15T07:07:32.467Z,8.00
2019-02-15T07:10:00.368Z,8.00
2019-02-15T07:12:28.343Z,8.00
2019-02-15T07:14:56.202Z,7.90
2019-02-15T07:17:24.226Z,7.90
2019-02-15T07:19:52.235Z,7.90
2019-02-15T07:22:20.260Z,7.90
2019-02-15T07:24:48.366Z,7.90
2019-02-15T07:27:16.365Z,7.90
2019-02-15T07:29:44.259Z,7.90
2019-02-15T07:32:12.268Z,7.90
2019-02-15T07:34:40.263Z,7.80
2019-02-15T07:37:08.259Z,7.80
2019-02-15T07:39:36.266Z,7.80
2019-02-15T07:42:04.502Z,7.80
2019-02-15T07:44:32.467Z,7.80
2019-02-15T07:47:00.479Z,7.80
2019-02-15T07:49:28.432Z,7.90
2019-02-15T07:51:56.373Z,7.90
2019-02-15T07:54:24.258Z,7.90
2019-02-15T07:56:52.262Z,7.90
2019-02-15T07:59:20.143Z,7.90
2019-02-15T08:01:48.369Z,8.00
2019-02-15T08:04:16.303Z,8.10
2019-02-15T08:06:44.126Z,8.20
2019-02-15T08:09:12.078Z,8.30
2019-02-15T08:11:40.146Z,8.30
2019-02-15T08:14:14.600Z,8.50
2019-02-15T08:16:38.826Z,8.60
2019-02-15T08:19:06.818Z,8.70
2019-02-15T08:21:34.794Z,8.80
2019-02-15T08:24:02.771Z,8.80
2019-02-15T08:26:30.722Z,8.90
2019-02-15T08:28:58.722Z,9.00
2019-02-15T08:31:26.831Z,9.10
2019-02-15T08:33:54.960Z,9.10
2019-02-15T08:36:23.114Z,9.20
2019-02-15T08:38:51.093Z,9.30
2019-02-15T08:41:19.171Z,9.30
2019-02-15T08:43:47.254Z,9.40
2019-02-15T08:46:15.116Z,9.50
2019-02-15T08:48:46.297Z,9.60
2019-02-15T08:51:13.365Z,9.60
2019-02-15T08:53:41.280Z,9.80
2019-02-15T08:56:09.257Z,9.90
2019-02-15T08:58:37.197Z,10.00
2019-02-15T09:01:05.254Z,10.00
2019-02-15T09:03:33.227Z,10.20
2019-02-15T09:06:01.172Z,10.20
2019-02-15T09:08:30.121Z,10.40
2019-02-15T09:10:58.205Z,10.40
2019-02-15T09:13:26.192Z,10.60
2019-02-15T09:15:54.219Z,10.60
2019-02-15T09:18:22.176Z,10.70
2019-02-15T09:20:50.209Z,10.80
2019-02-15T09:23:18.278Z,10.90
2019-02-15T09:25:46.408Z,11.00
2019-02-15T09:28:36.642Z,11.10
2019-02-15T09:31:04.534Z,11.20
2019-02-15T09:33:32.376Z,11.40
2019-02-15T09:36:00.327Z,11.50
2019-02-15T09:38:28.313Z,11.60
2019-02-15T09:40:56.176Z,11.70
2019-02-15T09:43:24.055Z,11.80
2019-02-15T09:45:52.044Z,12.00
2019-02-15T09:48:19.965Z,12.10
2019-02-15T09:50:47.951Z,12.20
2019-02-15T09:53:15.934Z,12.40
2019-02-15T09:55:43.964Z,12.50
2019-02-15T09:58:11.907Z,12.60
2019-02-15T10:00:39.846Z,12.80
2019-02-15T10:03:07.901Z,12.90
2019-02-15T10:05:35.755Z,13.10
2019-02-15T10:08:03.735Z,13.20
2019-02-15T10:10:31.673Z,13.30
2019-02-15T10:12:59.730Z,13.50
2019-02-15T10:15:28.083Z,13.60
2019-02-15T10:17:55.999Z,13.70
2019-02-15T10:20:23.988Z,13.90
2019-02-15T10:22:51.850Z,14.10
2019-02-15T10:25:19.799Z,14.20
2019-02-15T10:27:48.048Z,14.30
2019-02-15T10:30:16.074Z,14.40
2019-02-15T10:32:44.082Z,14.60
2019-02-15T10:35:12.067Z,14.70
2019-02-15T10:37:40.005Z,14.90
2019-02-15T10:40:08.167Z,15.00
2019-02-15T10:42:36.131Z,15.10
2019-02-15T10:45:04.826Z,15.30
2019-02-15T10:47:32.923Z,15.40
2019-02-15T10:50:00.879Z,15.50
2019-02-15T10:52:28.894Z,15.60
2019-02-15T10:54:56.825Z,15.70
2019-02-15T10:57:24.803Z,15.90
2019-02-15T10:59:52.756Z,16.10
2019-02-15T11:02:20.720Z,16.10
2019-02-15T11:04:49.091Z,16.30
2019-02-15T11:07:16.938Z,16.50
2019-02-15T11:09:45.079Z,16.60
2019-02-15T11:12:13.000Z,16.80
2019-02-15T11:15:07.789Z,17.00
2019-02-15T11:17:35.743Z,17.10
2019-02-15T11:20:04.004Z,17.30
2019-02-15T11:22:31.964Z,17.50
2019-02-15T11:24:59.906Z,17.60
2019-02-15T11:27:27.827Z,17.70
2019-02-15T11:29:55.691Z,17.90
2019-02-15T11:32:24.056Z,18.00
2019-02-15T11:34:52.452Z,18.20
2019-02-15T11:37:20.377Z,18.40
2019-02-15T11:39:48.374Z,18.50
2019-02-15T11:42:16.663Z,18.60
2019-02-15T11:44:44.625Z,18.70
2019-02-15T11:47:12.465Z,18.90
2019-02-15T11:49:40.535Z,19.00
2019-02-15T11:52:08.502Z,19.20
2019-02-15T11:54:36.510Z,19.30
2019-02-15T11:57:05.117Z,19.40
2019-02-15T11:59:33.107Z,19.50
2019-02-15T12:02:06.115Z,19.70
2019-02-15T12:04:30.909Z,19.80
2019-02-15T12:06:58.931Z,19.90
2019-02-15T12:09:26.886Z,20.10
2019-02-15T12:11:54.830Z,20.20
2019-02-15T12:14:42.347Z,20.30
2019-02-15T12:17:09.036Z,20.40
2019-02-15T12:19:37.024Z,20.50
2019-02-15T12:22:05.429Z,20.50
2019-02-15T12:24:33.636Z,20.70
2019-02-15T12:27:01.747Z,20.80
2019-02-15T12:29:29.627Z,20.90
2019-02-15T12:31:57.547Z,21.10
2019-02-15T12:34:25.531Z,21.10
2019-02-15T12:36:53.477Z,21.20
2019-02-15T12:39:21.439Z,21.30
2019-02-15T12:41:49.443Z,21.50
2019-02-15T12:44:17.364Z,21.70
2019-02-15T12:46:45.365Z,21.80
2019-02-15T12:49:13.442Z,21.90
2019-02-15T12:51:41.495Z,22.00
2019-02-15T12:54:09.466Z,21.80
2019-02-15T12:56:37.476Z,21.80
2019-02-15T12:59:05.396Z,21.80
2019-02-15T13:01:33.234Z,21.80
2019-02-15T13:04:01.184Z,21.90
2019-02-15T13:06:29.175Z,22.00
2019-02-15T13:08:57.123Z,22.00
2019-02-15T13:11:27.755Z,22.10
2019-02-15T13:13:55.642Z,22.30
2019-02-15T13:16:23.624Z,22.40
2019-02-15T13:18:51.667Z,22.50
2019-02-15T13:21:19.791Z,22.60
2019-02-15T13:23:47.919Z,22.60
2019-02-15T13:26:16.264Z,22.70
2019-02-15T13:28:44.320Z,22.70
2019-02-15T13:31:12.451Z,22.80
2019-02-15T13:33:40.405Z,22.90
2019-02-15T13:36:08.639Z,23.00
2019-02-15T13:38:36.606Z,23.10
2019-02-15T13:41:04.547Z,23.30
2019-02-15T13:43:32.488Z,23.30
2019-02-15T13:46:00.375Z,23.30
2019-02-15T13:48:28.327Z,23.50
2019-02-15T13:50:56.266Z,23.50
2019-02-15T13:53:24.195Z,23.50
2019-02-15T13:55:52.335Z,23.50
2019-02-15T13:58:20.307Z,23.60
2019-02-15T14:00:48.293Z,23.70
2019-02-15T14:03:16.251Z,23.90
2019-02-15T14:05:44.291Z,23.90
2019-02-15T14:08:12.250Z,23.90
2019-02-15T14:10:40.204Z,24.00
2019-02-15T14:13:08.068Z,24.00
2019-02-15T14:16:03.858Z,24.10
2019-02-15T14:18:31.876Z,24.10
2019-02-15T14:20:59.866Z,24.10
2019-02-15T14:23:27.904Z,24.20
2019-02-15T14:25:55.967Z,24.10
2019-02-15T14:28:23.923Z,24.10
2019-02-15T14:30:52.136Z,24.20
2019-02-15T14:33:20.033Z,24.20
2019-02-15T14:35:48.146Z,24.20
2019-02-15T14:38:16.062Z,24.30
2019-02-15T14:40:43.975Z,24.20
2019-02-15T14:43:11.931Z,24.30
2019-02-15T14:45:39.854Z,24.30
2019-02-15T14:48:07.912Z,24.40
2019-02-15T14:50:35.819Z,24.30
2019-02-15T14:53:03.875Z,24.30
2019-02-15T14:55:31.916Z,24.40
2019-02-15T14:57:59.856Z,24.30
2019-02-15T15:00:28.249Z,24.40
2019-02-15T15:02:56.279Z,24.40
2019-02-15T15:05:24.204Z,24.40
2019-02-15T15:07:52.283Z,24.30
2019-02-15T15:10:20.585Z,24.20
2019-02-15T15:12:48.538Z,24.20
2019-02-15T15:15:52.382Z,24.30
2019-02-15T15:18:19.675Z,24.30
2019-02-15T15:20:47.739Z,24.20
2019-02-15T15:23:15.755Z,24.10
2019-02-15T15:25:43.675Z,24.10
2019-02-15T15:28:11.611Z,24.10
2019-02-15T15:30:39.627Z,24.10
2019-02-15T15:33:07.919Z,24.00
2019-02-15T15:35:35.930Z,24.00
2019-02-15T15:38:03.897Z,23.90
2019-02-15T15:40:31.888Z,23.90
2019-02-15T15:42:59.910Z,23.90
2019-02-15T15:45:28.446Z,23.70
2019-02-15T15:47:56.509Z,23.70
2019-02-15T15:50:24.669Z,23.60
2019-02-15T15:52:52.689Z,23.50
2019-02-15T15:55:20.920Z,23.40
2019-02-15T15:57:48.911Z,23.30
2019-02-15T16:00:17.129Z,23.30
2019-02-15T16:02:45.062Z,23.10
2019-02-15T16:05:13.308Z,23.00
2019-02-15T16:07:43.487Z,22.80
2019-02-15T16:10:11.478Z,22.70
2019-02-15T16:12:39.446Z,22.70
2019-02-15T16:15:40.309Z,22.60
2019-02-15T16:18:07.610Z,22.50
2019-02-15T16:20:35.594Z,22.30
2019-02-15T16:23:03.518Z,22.30
2019-02-15T16:25:31.539Z,22.20
2019-02-15T16:27:59.494Z,22.10
2019-02-15T16:30:28.356Z,22.00
2019-02-15T16:32:56.522Z,21.90
2019-02-15T16:35:24.839Z,21.70
2019-02-15T16:37:52.820Z,21.50
2019-02-15T16:40:20.766Z,21.40
2019-02-15T16:42:48.723Z,21.20
2019-02-15T16:45:17.731Z,20.90
2019-02-15T16:47:45.823Z,20.80
2019-02-15T16:50:13.763Z,20.70
2019-02-15T16:52:41.736Z,20.50
2019-02-15T16:55:12.741Z,20.40
2019-02-15T16:57:39.546Z,20.10
2019-02-15T17:00:07.815Z,20.00
2019-02-15T17:02:40.111Z,19.90
2019-02-15T17:05:08.483Z,19.80
2019-02-15T17:07:36.468Z,19.60
2019-02-15T17:10:14.292Z,19.70
2019-02-15T17:14:03.979Z,19.60
2019-02-15T17:19:53.207Z,19.20
2019-02-15T17:22:20.135Z,19.20
2019-02-15T17:25:07.583Z,19.00
2019-02-15T17:27:36.287Z,19.00
2019-02-15T17:30:05.499Z,18.90
2019-02-15T17:32:34.291Z,18.80
2019-02-15T17:35:03.049Z,18.60
2019-02-15T17:37:31.943Z,18.70
2019-02-15T17:40:00.945Z,18.60
2019-02-15T17:42:29.699Z,18.40
2019-02-15T17:44:58.569Z,18.40
2019-02-15T17:47:27.395Z,18.20
2019-02-15T17:49:56.242Z,18.20
2019-02-15T17:52:25.121Z,18.20
2019-02-15T17:54:53.966Z,18.20
2019-02-15T17:58:12.266Z,18.00
2019-02-15T18:01:39.787Z,17.90
2019-02-15T18:05:09.703Z,17.90
2019-02-15T18:08:17.615Z,17.80
2019-02-15T18:11:50.774Z,17.70
2019-02-15T18:14:46.584Z,17.60
2019-02-15T18:17:20.257Z,17.70
2019-02-15T18:19:49.051Z,17.70
2019-02-15T18:22:46.291Z,17.70
2019-02-15T18:25:15.047Z,17.60
2019-02-15T18:27:44.840Z,17.40
2019-02-15T18:31:04.012Z,17.40
2019-02-15T18:33:31.590Z,17.30
2019-02-15T18:36:00.447Z,17.20
2019-02-15T18:38:29.429Z,17.30
2019-02-15T18:40:58.285Z,17.10
2019-02-15T18:43:27.039Z,17.10
2019-02-15T18:45:55.894Z,17.00
2019-02-15T18:48:24.747Z,17.10
2019-02-15T18:50:53.562Z,17.00
2019-02-15T18:53:22.418Z,17.00
2019-02-15T18:55:51.274Z,17.00
2019-02-15T18:58:20.078Z,17.00
2019-02-15T19:00:48.839Z,16.90
2019-02-15T19:03:20.714Z,16.80
2019-02-15T19:05:49.683Z,16.80
2019-02-15T19:08:18.574Z,16.70
2019-02-15T19:10:47.363Z,16.80
2019-02-15T19:13:16.242Z,16.80
2019-02-15T19:16:25.562Z,16.80
2019-02-15T19:18:52.887Z,16.80
2019-02-15T19:21:22.911Z,16.70
2019-02-15T19:23:52.063Z,16.70
2019-02-15T19:26:20.931Z,16.60
2019-02-15T19:28:49.846Z,16.60
2019-02-15T19:31:18.618Z,16.70
2019-02-15T19:33:47.531Z,16.70
2019-02-15T19:36:16.367Z,16.50
2019-02-15T19:38:45.071Z,16.40
2019-02-15T19:41:13.811Z,16.40
2019-02-15T19:43:42.643Z,16.50
2019-02-15T19:46:11.471Z,16.40
2019-02-15T19:48:40.207Z,16.40
2019-02-15T19:51:09.002Z,16.40
2019-02-15T19:53:37.825Z,16.40
2019-02-15T19:56:06.761Z,16.30
2019-02-15T19:58:35.514Z,16.20
2019-02-15T20:01:04.510Z,16.00
2019-02-15T20:03:34.863Z,16.00
2019-02-15T20:06:03.998Z,16.00
2019-02-15T20:08:32.954Z,15.90
2019-02-15T20:11:01.830Z,15.90
2019-02-15T20:13:30.907Z,16.00
2019-02-15T20:16:41.322Z,16.10
2019-02-15T20:19:08.563Z,16.00
2019-02-15T20:21:37.370Z,15.70
2019-02-15T20:24:06.211Z,15.70
2019-02-15T20:26:35.012Z,15.80
2019-02-15T20:29:03.827Z,15.90
2019-02-15T20:31:32.620Z,15.90
2019-02-15T20:34:01.443Z,15.90
2019-02-15T20:36:30.216Z,15.90
2019-02-15T20:38:59.084Z,15.80
2019-02-15T20:41:27.846Z,15.80
2019-02-15T20:43:56.610Z,15.80
2019-02-15T20:46:25.465Z,15.60
2019-02-15T20:49:04.235Z,15.50
2019-02-15T20:51:25.093Z,15.40
2019-02-15T20:53:53.806Z,15.50
2019-02-15T20:56:26.987Z,15.30
2019-02-15T20:58:59.741Z,15.30
2019-02-15T21:01:32.666Z,15.30
2019-02-15T21:04:02.213Z,15.30
2019-02-15T21:06:31.016Z,15.40
2019-02-15T21:09:03.723Z,15.20
2019-02-15T21:11:36.695Z,15.20
2019-02-15T21:14:09.903Z,15.20
2019-02-15T21:17:06.421Z,15.20
2019-02-15T21:19:39.077Z,15.20
2019-02-15T21:22:08.498Z,15.20
2019-02-15T21:24:37.304Z,15.20
2019-02-15T21:27:45.699Z,15.20
2019-02-15T21:30:13.763Z,15.10
2019-02-15T21:32:42.458Z,15.00
2019-02-15T21:35:11.329Z,15.00
2019-02-15T21:37:39.697Z,15.10
2019-02-15T21:40:09.470Z,15.10
2019-02-15T21:42:37.908Z,15.00
2019-02-15T21:45:06.888Z,14.90
2019-02-15T21:47:35.214Z,14.90
2019-02-15T21:50:03.706Z,14.90
2019-02-15T21:52:31.784Z,14.80
2019-02-15T21:55:00.031Z,14.80
2019-02-15T21:57:28.104Z,14.80
2019-02-15T21:59:56.102Z,14.70
2019-02-15T22:02:24.046Z,14.60
2019-02-15T22:04:51.987Z,14.70
2019-02-15T22:07:20.096Z,14.70
2019-02-15T22:09:48.111Z,14.60
2019-02-15T22:12:16.015Z,14.60
2019-02-15T22:15:14.517Z,14.50
2019-02-15T22:17:42.634Z,14.40
2019-02-15T22:20:11.761Z,14.40
2019-02-15T22:22:39.878Z,14.40
2019-02-15T22:25:08.205Z,14.40
2019-02-15T22:27:36.253Z,14.30
2019-02-15T22:30:04.954Z,14.20
2019-02-15T22:32:32.930Z,14.20
2019-02-15T22:35:02.209Z,14.10
2019-02-15T22:37:30.170Z,14.10
2019-02-15T22:39:59.968Z,14.00
2019-02-15T22:42:27.977Z,14.00
2019-02-15T22:44:59.924Z,13.90
2019-02-15T22:47:27.971Z,14.00
2019-02-15T22:49:55.979Z,14.00
2019-02-15T22:52:23.935Z,13.90
2019-02-15T22:54:51.927Z,13.90
2019-02-15T22:57:19.815Z,13.90
2019-02-15T22:59:48.406Z,13.80
2019-02-15T23:02:20.525Z,13.90
2019-02-15T23:04:48.659Z,14.00
2019-02-15T23:07:16.549Z,13.80
2019-02-15T23:09:44.507Z,13.70
2019-02-15T23:12:12.419Z,13.70
2019-02-15T23:14:40.468Z,13.70
2019-02-15T23:17:08.621Z,13.60
2019-02-15T23:19:36.618Z,13.60
2019-02-15T23:22:05.486Z,13.60
2019-02-15T23:24:33.553Z,13.60
2019-02-15T23:27:01.629Z,13.50
2019-02-15T23:29:29.622Z,13.50
2019-02-15T23:31:57.553Z,13.60
2019-02-15T23:34:25.563Z,13.50
2019-02-15T23:36:53.635Z,13.40
2019-02-15T23:39:21.606Z,13.40
2019-02-15T23:41:49.614Z,13.40
2019-02-15T23:44:17.504Z,13.40
2019-02-15T23:46:45.515Z,13.40
2019-02-15T23:49:13.494Z,13.20
2019-02-15T23:51:41.483Z,13.20
2019-02-15T23:54:09.566Z,13.10
2019-02-15T23:56:37.578Z,13.10
2019-02-15T23:59:05.564Z,13.10
